createdAt,value
2023-03-22T00:00:56.619Z,82.40
2023-03-22T00:05:59.655Z,82.70
2023-03-22T00:11:03.755Z,84.40
2023-03-22T00:16:07.491Z,84.20
2023-03-22T00:21:17.485Z,84.60
2023-03-22T00:26:20.993Z,85.00
2023-03-22T00:31:24.246Z,85.60
2023-03-22T00:36:27.410Z,86.00
2023-03-22T00:41:30.703Z,87.00
2023-03-22T00:46:33.584Z,87.40
2023-03-22T00:51:36.608Z,87.70
2023-03-22T00:56:39.968Z,88.60
2023-03-22T01:01:43.546Z,89.90
2023-03-22T01:06:47.222Z,90.30
2023-03-22T01:11:50.082Z,90.60
2023-03-22T01:16:57.772Z,90.80
2023-03-22T01:22:00.856Z,91.40
2023-03-22T01:27:04.107Z,91.70
2023-03-22T01:32:07.258Z,92.20
2023-03-22T01:37:10.249Z,92.50
2023-03-22T01:42:15.931Z,92.90
2023-03-22T01:47:18.845Z,93.50
2023-03-22T01:52:21.731Z,94.20
2023-03-22T01:57:25.578Z,94.20
2023-03-22T02:02:31.066Z,94.70
2023-03-22T02:07:34.052Z,95.00
2023-03-22T02:13:13.256Z,95.30
2023-03-22T02:18:44.689Z,95.90
2023-03-22T02:24:07.073Z,97.40
2023-03-22T02:29:30.060Z,97.50
2023-03-22T02:35:30.035Z,98.00
2023-03-22T02:40:57.608Z,98.80
2023-03-22T02:46:30.748Z,99.10
2023-03-22T02:51:52.940Z,99.60
2023-03-22T02:57:24.252Z,99.60
2023-03-22T03:02:30.914Z,99.90
2023-03-22T03:07:34.784Z,99.90
2023-03-22T03:12:37.646Z,99.90
2023-03-22T03:18:07.405Z,99.90
2023-03-22T03:24:01.530Z,99.90
2023-03-22T03:29:09.454Z,99.90
2023-03-22T03:34:28.506Z,99.90
2023-03-22T03:39:35.472Z,99.90
2023-03-22T03:44:39.338Z,99.90
2023-03-22T03:49:42.424Z,99.90
2023-03-22T03:54:45.754Z,99.90
2023-03-22T03:59:48.930Z,99.90
2023-03-22T04:04:51.926Z,99.90
2023-03-22T04:09:54.937Z,99.90
2023-03-22T04:14:59.645Z,99.90
2023-03-22T04:20:05.835Z,99.90
2023-03-22T04:25:14.310Z,99.90
2023-03-22T04:30:20.198Z,99.90
2023-03-22T04:35:23.653Z,99.90
2023-03-22T04:40:28.601Z,99.90
2023-03-22T04:45:32.402Z,99.90
2023-03-22T04:50:35.497Z,99.90
2023-03-22T04:55:38.412Z,99.90
2023-03-22T05:00:42.378Z,99.90
2023-03-22T05:05:57.917Z,99.90
2023-03-22T05:11:11.952Z,99.90
2023-03-22T05:16:15.190Z,99.90
2023-03-22T05:21:22.234Z,99.90
2023-03-22T05:26:26.693Z,99.90
2023-03-22T05:31:34.547Z,99.90
2023-03-22T05:36:37.638Z,99.90
2023-03-22T05:41:40.773Z,99.90
2023-03-22T05:46:43.860Z,99.90
2023-03-22T05:51:47.182Z,99.90
2023-03-22T05:56:49.983Z,99.90
2023-03-22T06:01:53.199Z,99.90
2023-03-22T06:06:56.537Z,99.90
2023-03-22T06:11:59.804Z,99.90
2023-03-22T06:17:02.902Z,99.90
2023-03-22T06:22:08.469Z,99.90
2023-03-22T06:27:11.739Z,99.90
2023-03-22T06:32:16.924Z,99.90
2023-03-22T06:37:20.288Z,99.90
2023-03-22T06:42:23.545Z,99.90
2023-03-22T06:47:27.266Z,99.90
2023-03-22T06:52:30.281Z,99.90
2023-03-22T06:57:33.431Z,99.90
2023-03-22T07:02:36.475Z,99.90
2023-03-22T07:07:39.668Z,99.30
2023-03-22T07:12:42.890Z,98.60
2023-03-22T07:17:46.559Z,98.20
2023-03-22T07:22:52.082Z,98.00
2023-03-22T07:27:56.922Z,97.20
2023-03-22T07:33:01.438Z,96.50
2023-03-22T07:38:05.477Z,96.10
2023-03-22T07:43:12.096Z,95.30
2023-03-22T07:48:15.436Z,94.50
2023-03-22T07:53:19.908Z,93.90
2023-03-22T07:58:22.940Z,93.20
2023-03-22T08:03:26.503Z,92.10
2023-03-22T08:08:29.503Z,91.90
2023-03-22T08:13:33.313Z,90.50
2023-03-22T08:18:36.730Z,89.30
2023-03-22T08:23:42.136Z,87.20
2023-03-22T08:28:45.477Z,86.10
2023-03-22T08:33:50.032Z,84.20
2023-03-22T08:38:54.424Z,83.30
2023-03-22T08:43:57.677Z,82.50
2023-03-22T08:49:02.368Z,81.80
2023-03-22T08:54:06.111Z,81.40
2023-03-22T08:59:10.250Z,81.00
2023-03-22T09:04:13.884Z,79.60
2023-03-22T09:09:16.968Z,79.40
2023-03-22T09:14:19.918Z,79.40
2023-03-22T09:19:23.067Z,78.00
2023-03-22T09:24:25.872Z,77.80
2023-03-22T09:29:28.843Z,77.80
2023-03-22T09:34:32.128Z,77.80
2023-03-22T09:39:38.688Z,76.90
2023-03-22T09:44:44.933Z,76.80
2023-03-22T09:49:54.204Z,76.50
2023-03-22T09:54:58.623Z,76.30
2023-03-22T10:00:37.541Z,76.50
2023-03-22T10:06:21.137Z,76.50
2023-03-22T10:11:25.109Z,76.50
2023-03-22T10:16:34.004Z,77.10
2023-03-22T10:21:37.425Z,77.10
2023-03-22T10:26:45.733Z,77.20
2023-03-22T10:31:48.778Z,77.80
2023-03-22T10:36:53.523Z,77.70
2023-03-22T10:42:01.232Z,77.30
2023-03-22T10:47:08.416Z,77.30
2023-03-22T10:52:27.183Z,77.00
2023-03-22T10:57:30.365Z,77.00
2023-03-22T11:02:33.669Z,76.70
2023-03-22T11:07:45.320Z,76.50
2023-03-22T11:13:08.053Z,75.50
2023-03-22T11:18:15.971Z,75.40
2023-03-22T11:23:21.636Z,74.70
2023-03-22T11:28:41.098Z,74.10
2023-03-22T11:33:57.821Z,73.00
2023-03-22T11:39:07.441Z,71.40
2023-03-22T11:44:21.810Z,69.90
2023-03-22T11:49:37.068Z,65.80
2023-03-22T11:54:42.569Z,65.00
2023-03-22T12:00:11.938Z,63.00
2023-03-22T12:05:29.770Z,62.30
2023-03-22T12:10:48.266Z,61.50
2023-03-22T12:15:58.628Z,60.40
2023-03-22T12:21:02.472Z,59.30
2023-03-22T12:26:24.847Z,58.70
2023-03-22T12:31:44.633Z,58.30
2023-03-22T12:36:57.685Z,58.30
2023-03-22T12:42:34.925Z,58.70
2023-03-22T12:47:48.703Z,59.00
2023-03-22T12:52:56.722Z,59.20
2023-03-22T12:58:00.909Z,59.30
2023-03-22T13:03:38.657Z,60.10
2023-03-22T13:09:09.940Z,59.50
2023-03-22T13:14:49.006Z,58.50
2023-03-22T13:20:00.293Z,58.40
2023-03-22T13:25:29.221Z,58.50
2023-03-22T13:30:57.539Z,58.50
2023-03-22T13:36:25.045Z,58.20
2023-03-22T13:41:31.899Z,57.70
2023-03-22T13:46:37.960Z,57.20
2023-03-22T13:51:43.011Z,56.80
2023-03-22T13:56:59.614Z,56.70
2023-03-22T14:02:25.147Z,56.40
2023-03-22T14:07:56.270Z,56.80
2023-03-22T14:13:33.209Z,55.30
2023-03-22T14:18:41.646Z,55.10
